Weather at Fisantekraal Airport

Public forecast

Using degrees Celsius for public forecast. Weather courtesy of forecast.io.

Closest aviation weather report (METAR) to Fisantekraal Airport

Report is more than 6 hours old.

Closest report is Cape Town International Airport, 13.6 nm (25.1 km) SSW.

2022/11/14 15:00 (retrieved 2 years ago)

FACT 141500Z 16011KT CAVOK 23/10 Q1012 NOSIG

Closest aviation forecast (TAF) to Fisantekraal Airport

Forecast is more than 12 hours old.

Closest forecast is Cape Town International Airport, 13.6 nm (25.1 km) SSW.

2023/02/22 18:00 (retrieved 1 year ago)

TAF FACT 221600Z 2218/2324 18015KT CAVOK TX26/2312Z TN14/2304Z PROB30 TEMPO 2319/2324 2000 BR BKN004